sensor_id;sensor_type;location;lat;lon;timestamp;pressure;altitude;pressure_sealevel;temperature;humidity
70407;BME280;57821;52.202;0.154;2023-03-01T00:00:40;103389.59;;;5.50;84.10
70407;BME280;57821;52.202;0.154;2023-03-01T00:03:07;103393.56;;;5.45;84.45
70407;BME280;57821;52.202;0.154;2023-03-01T00:05:34;103396.31;;;5.48;84.64
70407;BME280;57821;52.202;0.154;2023-03-01T00:08:07;103397.13;;;5.47;84.79
70407;BME280;57821;52.202;0.154;2023-03-01T00:10:34;103406.81;;;5.51;84.46
70407;BME280;57821;52.202;0.154;2023-03-01T00:13:00;103400.66;;;5.49;85.06
70407;BME280;57821;52.202;0.154;2023-03-01T00:15:27;103391.91;;;5.46;84.78
70407;BME280;57821;52.202;0.154;2023-03-01T00:17:54;103400.41;;;5.45;84.81
70407;BME280;57821;52.202;0.154;2023-03-01T00:20:20;103396.16;;;5.45;84.78
70407;BME280;57821;52.202;0.154;2023-03-01T00:22:47;103384.88;;;5.43;84.60
70407;BME280;57821;52.202;0.154;2023-03-01T00:25:14;103393.47;;;5.44;85.38
70407;BME280;57821;52.202;0.154;2023-03-01T00:27:40;103385.28;;;5.36;85.22
70407;BME280;57821;52.202;0.154;2023-03-01T00:30:09;103387.97;;;5.37;85.25
70407;BME280;57821;52.202;0.154;2023-03-01T00:32:36;103392.31;;;5.38;85.63
70407;BME280;57821;52.202;0.154;2023-03-01T00:35:05;103387.88;;;5.36;86.17
70407;BME280;57821;52.202;0.154;2023-03-01T00:37:31;103384.34;;;5.34;85.53
70407;BME280;57821;52.202;0.154;2023-03-01T00:39:58;103378.81;;;5.28;85.79
70407;BME280;57821;52.202;0.154;2023-03-01T00:42:25;103382.38;;;5.30;86.33
70407;BME280;57821;52.202;0.154;2023-03-01T00:44:51;103393.84;;;5.35;85.72
70407;BME280;57821;52.202;0.154;2023-03-01T00:47:18;103391.97;;;5.32;86.55
70407;BME280;57821;52.202;0.154;2023-03-01T00:49:45;103388.50;;;5.32;86.10
70407;BME280;57821;52.202;0.154;2023-03-01T00:52:12;103378.94;;;5.29;86.00
70407;BME280;57821;52.202;0.154;2023-03-01T00:54:39;103379.88;;;5.31;86.18
70407;BME280;57821;52.202;0.154;2023-03-01T00:57:05;103376.41;;;5.31;86.05
70407;BME280;57821;52.202;0.154;2023-03-01T00:59:32;103369.44;;;5.28;86.09
70407;BME280;57821;52.202;0.154;2023-03-01T01:01:58;103385.13;;;5.33;86.76
70407;BME280;57821;52.202;0.154;2023-03-01T01:04:25;103358.16;;;5.26;86.26
70407;BME280;57821;52.202;0.154;2023-03-01T01:06:52;103373.25;;;5.35;85.79
70407;BME280;57821;52.202;0.154;2023-03-01T01:09:18;103372.44;;;5.36;86.28
70407;BME280;57821;52.202;0.154;2023-03-01T01:11:47;103358.41;;;5.31;86.80
70407;BME280;57821;52.202;0.154;2023-03-01T01:14:14;103369.69;;;5.33;85.91
70407;BME280;57821;52.202;0.154;2023-03-01T01:16:41;103373.25;;;5.35;86.17
70407;BME280;57821;52.202;0.154;2023-03-01T01:19:10;103373.25;;;5.35;86.33
70407;BME280;57821;52.202;0.154;2023-03-01T01:21:37;103368.13;;;5.35;86.18
70407;BME280;57821;52.202;0.154;2023-03-01T01:24:04;103370.69;;;5.35;85.95
70407;BME280;57821;52.202;0.154;2023-03-01T01:26:32;103364.53;;;5.33;85.97
70407;BME280;57821;52.202;0.154;2023-03-01T01:29:01;103373.25;;;5.35;85.94
70407;BME280;57821;52.202;0.154;2023-03-01T01:31:29;103359.41;;;5.33;85.97
70407;BME280;57821;52.202;0.154;2023-03-01T01:33:57;103366.31;;;5.34;86.14
70407;BME280;57821;52.202;0.154;2023-03-01T01:36:24;103368.13;;;5.35;86.51
70407;BME280;57821;52.202;0.154;2023-03-01T01:38:51;103357.81;;;5.35;85.92
70407;BME280;57821;52.202;0.154;2023-03-01T01:41:18;103357.72;;;5.33;86.65
70407;BME280;57821;52.202;0.154;2023-03-01T01:44:14;103357.63;;;5.32;86.14
70407;BME280;57821;52.202;0.154;2023-03-01T01:46:43;103349.13;;;5.33;85.89
70407;BME280;57821;52.202;0.154;2023-03-01T01:49:32;103349.13;;;5.33;86.38
70407;BME280;57821;52.202;0.154;2023-03-01T01:52:08;103343.97;;;5.33;85.27
70407;BME280;57821;52.202;0.154;2023-03-01T01:57:13;103328.38;;;5.30;85.02
70407;BME280;57821;52.202;0.154;2023-03-01T01:59:43;103322.88;;;5.24;85.45
70407;BME280;57821;52.202;0.154;2023-03-01T02:02:12;103328.53;;;5.33;85.37
70407;BME280;57821;52.202;0.154;2023-03-01T02:04:40;103331.09;;;5.33;85.19
70407;BME280;57821;52.202;0.154;2023-03-01T02:07:19;103326.75;;;5.32;85.46
70407;BME280;57821;52.202;0.154;2023-03-01T02:09:48;103305.44;;;5.20;85.69
70407;BME280;57821;52.202;0.154;2023-03-01T02:12:21;103324.81;;;5.28;84.61
70407;BME280;57821;52.202;0.154;2023-03-01T02:14:49;103317.09;;;5.28;85.26
70407;BME280;57821;52.202;0.154;2023-03-01T02:17:18;103325.69;;;5.28;85.15
70407;BME280;57821;52.202;0.154;2023-03-01T02:22:27;103314.31;;;5.25;84.83
70407;BME280;57821;52.202;0.154;2023-03-01T02:25:12;103319.66;;;5.28;85.19
70407;BME280;57821;52.202;0.154;2023-03-01T02:30:30;103311.84;;;5.26;84.77
70407;BME280;57821;52.202;0.154;2023-03-01T02:32:57;103307.59;;;5.27;85.14
70407;BME280;57821;52.202;0.154;2023-03-01T02:35:26;103308.38;;;5.26;84.94
70407;BME280;57821;52.202;0.154;2023-03-01T02:37:53;103301.47;;;5.25;84.67
70407;BME280;57821;52.202;0.154;2023-03-01T02:40:19;103295.53;;;5.26;84.64
70407;BME280;57821;52.202;0.154;2023-03-01T02:42:53;103288.59;;;5.25;84.49
70407;BME280;57821;52.202;0.154;2023-03-01T02:45:20;103292.94;;;5.26;85.26
70407;BME280;57821;52.202;0.154;2023-03-01T02:47:47;103276.38;;;5.21;84.22
70407;BME280;57821;52.202;0.154;2023-03-01T02:53:27;103280.97;;;5.26;85.15
70407;BME280;57821;52.202;0.154;2023-03-01T02:55:59;103271.56;;;5.27;84.72
70407;BME280;57821;52.202;0.154;2023-03-01T02:58:25;103272.38;;;5.26;84.43
70407;BME280;57821;52.202;0.154;2023-03-01T03:00:52;103278.31;;;5.25;84.34
70407;BME280;57821;52.202;0.154;2023-03-01T03:03:21;103273.16;;;5.25;84.85
70407;BME280;57821;52.202;0.154;2023-03-01T03:05:48;103273.00;;;5.22;84.11
70407;BME280;57821;52.202;0.154;2023-03-01T03:08:15;103269.44;;;5.20;84.49
70407;BME280;57821;52.202;0.154;2023-03-01T03:10:42;103260.78;;;5.18;84.08
70407;BME280;57821;52.202;0.154;2023-03-01T03:13:13;103256.41;;;5.17;83.86
70407;BME280;57821;52.202;0.154;2023-03-01T03:15:42;103257.22;;;5.16;84.25
70407;BME280;57821;52.202;0.154;2023-03-01T03:18:12;103257.03;;;5.13;84.99
70407;BME280;57821;52.202;0.154;2023-03-01T03:20:41;103244.44;;;5.03;84.35
70407;BME280;57821;52.202;0.154;2023-03-01T03:23:08;103263.69;;;5.09;84.51
70407;BME280;57821;52.202;0.154;2023-03-01T03:25:35;103256.84;;;5.10;84.70
70407;BME280;57821;52.202;0.154;2023-03-01T03:28:02;103258.44;;;5.08;84.48
70407;BME280;57821;52.202;0.154;2023-03-01T03:30:31;103255.06;;;5.09;84.52
70407;BME280;57821;52.202;0.154;2023-03-01T03:32:58;103239.56;;;5.07;85.05
70407;BME280;57821;52.202;0.154;2023-03-01T03:35:29;103254.28;;;5.10;84.76
70407;BME280;57821;52.202;0.154;2023-03-01T03:38:01;103243.22;;;5.11;84.73
70407;BME280;57821;52.202;0.154;2023-03-01T03:40:31;103246.66;;;5.11;85.14
70407;BME280;57821;52.202;0.154;2023-03-01T03:42:58;103242.22;;;5.09;84.18
70407;BME280;57821;52.202;0.154;2023-03-01T03:45:25;103245.16;;;5.15;84.53
70407;BME280;57821;52.202;0.154;2023-03-01T03:47:52;103232.72;;;5.08;84.59
70407;BME280;57821;52.202;0.154;2023-03-01T03:50:19;103237.19;;;5.10;84.06
70407;BME280;57821;52.202;0.154;2023-03-01T03:52:46;103239.66;;;5.09;84.54
70407;BME280;57821;52.202;0.154;2023-03-01T03:55:13;103237.88;;;5.08;84.78
70407;BME280;57821;52.202;0.154;2023-03-01T03:57:40;103244.09;;;5.11;85.44
70407;BME280;57821;52.202;0.154;2023-03-01T04:00:10;103236.19;;;5.08;86.14
70407;BME280;57821;52.202;0.154;2023-03-01T04:02:38;103237.88;;;5.08;85.98
70407;BME280;57821;52.202;0.154;2023-03-01T04:05:06;103228.06;;;5.01;86.12
70407;BME280;57821;52.202;0.154;2023-03-01T04:07:34;103224.66;;;5.02;86.35
70407;BME280;57821;52.202;0.154;2023-03-01T04:10:05;103229.78;;;5.02;85.99
70407;BME280;57821;52.202;0.154;2023-03-01T04:12:33;103228.13;;;5.02;86.24
70407;BME280;57821;52.202;0.154;2023-03-01T04:15:05;103223.59;;;4.98;86.68
70407;BME280;57821;52.202;0.154;2023-03-01T04:17:32;103216.59;;;4.95;87.28
70407;BME280;57821;52.202;0.154;2023-03-01T04:19:58;103211.09;;;4.89;87.28
70407;BME280;57821;52.202;0.154;2023-03-01T04:22:25;103213.75;;;4.91;87.25
70407;BME280;57821;52.202;0.154;2023-03-01T04:24:51;103211.44;;;4.95;87.42
70407;BME280;57821;52.202;0.154;2023-03-01T04:27:18;103211.28;;;4.92;87.14
70407;BME280;57821;52.202;0.154;2023-03-01T04:29:45;103223.34;;;4.93;87.48
70407;BME280;57821;52.202;0.154;2023-03-01T04:32:11;103216.44;;;4.92;87.27
70407;BME280;57821;52.202;0.154;2023-03-01T04:34:38;103210.28;;;4.90;87.49
70407;BME280;57821;52.202;0.154;2023-03-01T04:37:05;103200.75;;;4.88;87.99
70407;BME280;57821;52.202;0.154;2023-03-01T04:39:31;103205.94;;;4.89;87.54
70407;BME280;57821;52.202;0.154;2023-03-01T04:41:58;103197.44;;;4.90;87.42
70407;BME280;57821;52.202;0.154;2023-03-01T04:44:25;103195.84;;;4.92;88.25
70407;BME280;57821;52.202;0.154;2023-03-01T04:46:51;103196.50;;;4.88;88.43
70407;BME280;57821;52.202;0.154;2023-03-01T04:49:18;103194.06;;;4.91;88.76
70407;BME280;57821;52.202;0.154;2023-03-01T04:51:44;103184.44;;;4.87;88.03
70407;BME280;57821;52.202;0.154;2023-03-01T04:54:11;103181.13;;;4.90;88.01
70407;BME280;57821;52.202;0.154;2023-03-01T04:56:37;103183.78;;;4.91;88.95
70407;BME280;57821;52.202;0.154;2023-03-01T04:59:04;103183.78;;;4.91;88.70
70407;BME280;57821;52.202;0.154;2023-03-01T05:01:30;103174.94;;;4.86;89.10
70407;BME280;57821;52.202;0.154;2023-03-01T05:03:57;103181.94;;;4.89;88.75
70407;BME280;57821;52.202;0.154;2023-03-01T05:06:24;103177.66;;;4.89;88.58
70407;BME280;57821;52.202;0.154;2023-03-01T05:08:51;103175.91;;;4.88;89.18
70407;BME280;57821;52.202;0.154;2023-03-01T05:11:17;103180.34;;;4.91;89.22
70407;BME280;57821;52.202;0.154;2023-03-01T05:13:44;103174.41;;;4.92;88.99
70407;BME280;57821;52.202;0.154;2023-03-01T05:16:11;103178.66;;;4.91;89.80
70407;BME280;57821;52.202;0.154;2023-03-01T05:18:39;103185.72;;;4.95;89.86
70407;BME280;57821;52.202;0.154;2023-03-01T05:21:09;103177.75;;;4.91;89.93
70407;BME280;57821;52.202;0.154;2023-03-01T05:23:36;103184.00;;;4.94;90.16
70407;BME280;57821;52.202;0.154;2023-03-01T05:26:05;103173.50;;;4.91;89.54
70407;BME280;57821;52.202;0.154;2023-03-01T05:28:36;103176.88;;;4.90;90.05
70407;BME280;57821;52.202;0.154;2023-03-01T05:31:03;103175.38;;;4.94;90.27
70407;BME280;57821;52.202;0.154;2023-03-01T05:33:30;103169.34;;;4.93;90.26
70407;BME280;57821;52.202;0.154;2023-03-01T05:35:59;103172.09;;;4.96;90.22
70407;BME280;57821;52.202;0.154;2023-03-01T05:38:26;103170.31;;;4.95;89.93
70407;BME280;57821;52.202;0.154;2023-03-01T05:40:53;103171.13;;;4.94;90.09
70407;BME280;57821;52.202;0.154;2023-03-01T05:43:19;103175.28;;;4.92;91.05
70407;BME280;57821;52.202;0.154;2023-03-01T05:45:46;103163.06;;;4.88;90.91
70407;BME280;57821;52.202;0.154;2023-03-01T05:48:13;103180.44;;;4.92;90.47
70407;BME280;57821;52.202;0.154;2023-03-01T05:50:42;103171.72;;;4.90;91.00
70407;BME280;57821;52.202;0.154;2023-03-01T05:53:15;103182.00;;;4.90;91.17
70407;BME280;57821;52.202;0.154;2023-03-01T05:55:43;103173.16;;;4.85;91.90
70407;BME280;57821;52.202;0.154;2023-03-01T05:58:12;103176.50;;;4.84;91.57
70407;BME280;57821;52.202;0.154;2023-03-01T06:00:40;103174.75;;;4.83;92.18
70407;BME280;57821;52.202;0.154;2023-03-01T06:03:10;103174.94;;;4.86;91.77
70407;BME280;57821;52.202;0.154;2023-03-01T06:05:37;103187.88;;;4.88;91.54
70407;BME280;57821;52.202;0.154;2023-03-01T06:08:04;103174.03;;;4.86;92.20
70407;BME280;57821;52.202;0.154;2023-03-01T06:10:30;103174.75;;;4.83;91.87
70407;BME280;57821;52.202;0.154;2023-03-01T06:12:57;103180.25;;;4.89;92.14
70407;BME280;57821;52.202;0.154;2023-03-01T06:15:24;103180.25;;;4.89;92.06
70407;BME280;57821;52.202;0.154;2023-03-01T06:17:53;103181.06;;;4.88;92.06
70407;BME280;57821;52.202;0.154;2023-03-01T06:20:24;103186.19;;;4.88;91.63
70407;BME280;57821;52.202;0.154;2023-03-01T06:22:51;103187.00;;;4.87;92.57
70407;BME280;57821;52.202;0.154;2023-03-01T06:25:22;103179.88;;;4.83;92.21
70407;BME280;57821;52.202;0.154;2023-03-01T06:27:49;103186.09;;;4.87;93.15
70407;BME280;57821;52.202;0.154;2023-03-01T06:30:17;103187.00;;;4.87;91.77
70407;BME280;57821;52.202;0.154;2023-03-01T06:32:44;103181.75;;;4.86;92.29
70407;BME280;57821;52.202;0.154;2023-03-01T06:35:13;103175.72;;;4.85;92.75
70407;BME280;57821;52.202;0.154;2023-03-01T06:37:41;103193.09;;;4.89;92.63
70407;BME280;57821;52.202;0.154;2023-03-01T06:40:08;103183.63;;;4.88;92.66
70407;BME280;57821;52.202;0.154;2023-03-01T06:42:35;103184.69;;;4.92;92.76
70407;BME280;57821;52.202;0.154;2023-03-01T06:45:04;103175.03;;;4.88;93.01
70407;BME280;57821;52.202;0.154;2023-03-01T06:47:32;103174.50;;;4.93;92.63
70407;BME280;57821;52.202;0.154;2023-03-01T06:50:00;103173.59;;;4.93;92.44
70407;BME280;57821;52.202;0.154;2023-03-01T06:52:27;103180.53;;;4.94;92.51
70407;BME280;57821;52.202;0.154;2023-03-01T06:54:54;103171.03;;;4.93;93.54
70407;BME280;57821;52.202;0.154;2023-03-01T06:57:21;103174.50;;;4.93;93.02
70407;BME280;57821;52.202;0.154;2023-03-01T06:59:47;103168.22;;;4.88;92.93
70407;BME280;57821;52.202;0.154;2023-03-01T07:02:14;103184.00;;;4.94;93.16
70407;BME280;57821;52.202;0.154;2023-03-01T07:04:43;103180.44;;;4.92;93.30
70407;BME280;57821;52.202;0.154;2023-03-01T07:07:09;103174.31;;;4.90;93.26
70407;BME280;57821;52.202;0.154;2023-03-01T07:09:36;103180.44;;;4.92;93.76
70407;BME280;57821;52.202;0.154;2023-03-01T07:12:02;103184.00;;;4.94;94.12
70407;BME280;57821;52.202;0.154;2023-03-01T07:14:29;103191.06;;;4.99;93.87
70407;BME280;57821;52.202;0.154;2023-03-01T07:16:56;103187.69;;;5.00;93.77
70407;BME280;57821;52.202;0.154;2023-03-01T07:19:22;103185.72;;;4.95;94.12
70407;BME280;57821;52.202;0.154;2023-03-01T07:21:49;103184.94;;;4.96;94.47
70407;BME280;57821;52.202;0.154;2023-03-01T07:24:16;103184.34;;;5.01;93.62
70407;BME280;57821;52.202;0.154;2023-03-01T07:26:43;103170.50;;;4.99;93.92
70407;BME280;57821;52.202;0.154;2023-03-01T07:29:10;103187.88;;;5.03;93.75
70407;BME280;57821;52.202;0.154;2023-03-01T07:31:37;103200.09;;;5.07;93.85
70407;BME280;57821;52.202;0.154;2023-03-01T07:34:03;103191.59;;;5.08;93.75
70407;BME280;57821;52.202;0.154;2023-03-01T07:36:30;103184.66;;;5.07;94.21
70407;BME280;57821;52.202;0.154;2023-03-01T07:38:57;103203.22;;;5.16;94.53
70407;BME280;57821;52.202;0.154;2023-03-01T07:41:24;103190.16;;;5.13;94.10
70407;BME280;57821;52.202;0.154;2023-03-01T07:43:51;103189.72;;;5.20;93.83
70407;BME280;57821;52.202;0.154;2023-03-01T07:46:17;103179.88;;;5.13;94.00
70407;BME280;57821;52.202;0.154;2023-03-01T07:48:44;103185.91;;;5.13;93.72
70407;BME280;57821;52.202;0.154;2023-03-01T07:51:11;103201.97;;;5.24;93.05
70407;BME280;57821;52.202;0.154;2023-03-01T07:53:38;103187.88;;;5.17;93.61
70407;BME280;57821;52.202;0.154;2023-03-01T07:56:07;103187.13;;;5.20;92.97
70407;BME280;57821;52.202;0.154;2023-03-01T07:58:35;103194.59;;;5.30;93.65
70407;BME280;57821;52.202;0.154;2023-03-01T08:01:07;103185.44;;;5.35;93.73
70407;BME280;57821;52.202;0.154;2023-03-01T08:03:35;103179.66;;;5.39;92.83
70407;BME280;57821;52.202;0.154;2023-03-01T08:06:18;103174.50;;;5.39;93.40
70407;BME280;57821;52.202;0.154;2023-03-01T08:08:51;103172.38;;;5.47;93.37
70407;BME280;57821;52.202;0.154;2023-03-01T08:11:17;103160.41;;;5.47;92.29
70407;BME280;57821;52.202;0.154;2023-03-01T08:13:47;103171.28;;;5.58;92.69
70407;BME280;57821;52.202;0.154;2023-03-01T08:16:16;103167.03;;;5.58;92.40
70407;BME280;57821;52.202;0.154;2023-03-01T08:18:43;103167.41;;;5.66;92.41
70407;BME280;57821;52.202;0.154;2023-03-01T08:21:14;103177.44;;;5.76;92.79
70407;BME280;57821;52.202;0.154;2023-03-01T08:23:41;103176.13;;;5.84;92.93
70407;BME280;57821;52.202;0.154;2023-03-01T08:26:17;103156.63;;;5.88;91.91
70407;BME280;57821;52.202;0.154;2023-03-01T08:28:44;103153.75;;;5.98;91.69
70407;BME280;57821;52.202;0.154;2023-03-01T08:31:19;103162.72;;;6.06;91.68
70407;BME280;57821;52.202;0.154;2023-03-01T08:33:48;103152.59;;;6.09;92.11
70407;BME280;57821;52.202;0.154;2023-03-01T08:36:16;103156.63;;;6.20;92.01
70407;BME280;57821;52.202;0.154;2023-03-01T08:38:43;103154.28;;;6.25;91.45
70407;BME280;57821;52.202;0.154;2023-03-01T08:41:10;103145.03;;;6.28;91.44
70407;BME280;57821;52.202;0.154;2023-03-01T08:43:36;103146.31;;;6.36;90.87
70407;BME280;57821;52.202;0.154;2023-03-01T08:46:03;103145.56;;;6.55;91.03
70407;BME280;57821;52.202;0.154;2023-03-01T08:48:30;103135.13;;;6.70;91.32
70407;BME280;57821;52.202;0.154;2023-03-01T08:50:56;103135.88;;;6.85;90.95
70407;BME280;57821;52.202;0.154;2023-03-01T08:53:23;103132.25;;;6.99;89.96
70407;BME280;57821;52.202;0.154;2023-03-01T08:55:50;103129.97;;;7.05;90.25
70407;BME280;57821;52.202;0.154;2023-03-01T08:58:16;103140.09;;;7.18;90.24
70407;BME280;57821;52.202;0.154;2023-03-01T09:00:43;103139.41;;;7.22;89.74
70407;BME280;57821;52.202;0.154;2023-03-01T09:03:09;103141.63;;;7.32;89.24
70407;BME280;57821;52.202;0.154;2023-03-01T09:05:36;103134.69;;;7.31;88.63
70407;BME280;57821;52.202;0.154;2023-03-01T09:08:03;103130.44;;;7.32;88.48
70407;BME280;57821;52.202;0.154;2023-03-01T09:10:30;103126.00;;;7.29;88.42
70407;BME280;57821;52.202;0.154;2023-03-01T09:12:57;103130.44;;;7.32;88.23
70407;BME280;57821;52.202;0.154;2023-03-01T09:15:23;103125.25;;;7.32;88.73
70407;BME280;57821;52.202;0.154;2023-03-01T09:17:50;103122.91;;;7.36;88.47
70407;BME280;57821;52.202;0.154;2023-03-01T09:20:17;103115.31;;;7.39;88.32
70407;BME280;57821;52.202;0.154;2023-03-01T09:22:43;103129.72;;;7.54;89.01
70407;BME280;57821;52.202;0.154;2023-03-01T09:25:10;103134.66;;;7.67;88.09
70407;BME280;57821;52.202;0.154;2023-03-01T09:27:36;103119.28;;;7.70;88.50
70407;BME280;57821;52.202;0.154;2023-03-01T09:30:04;103124.09;;;7.81;87.39
70407;BME280;57821;52.202;0.154;2023-03-01T09:32:31;103127.03;;;7.89;87.26
70407;BME280;57821;52.202;0.154;2023-03-01T09:34:57;103126.34;;;7.93;86.60
70407;BME280;57821;52.202;0.154;2023-03-01T09:37:24;103131.13;;;8.03;86.79
70407;BME280;57821;52.202;0.154;2023-03-01T09:39:51;103127.97;;;8.10;86.48
70407;BME280;57821;52.202;0.154;2023-03-01T09:42:17;103113.50;;;8.14;85.90
70407;BME280;57821;52.202;0.154;2023-03-01T09:44:54;103116.56;;;8.24;85.41
70407;BME280;57821;52.202;0.154;2023-03-01T09:47:27;103114.38;;;8.34;85.20
70407;BME280;57821;52.202;0.154;2023-03-01T09:50:02;103115.72;;;8.45;85.30
70407;BME280;57821;52.202;0.154;2023-03-01T09:52:38;103121.03;;;8.48;84.10
70407;BME280;57821;52.202;0.154;2023-03-01T09:55:17;103119.00;;;8.41;83.42
70407;BME280;57821;52.202;0.154;2023-03-01T09:57:56;103121.34;;;8.35;83.40
70407;BME280;57821;52.202;0.154;2023-03-01T10:03:17;103123.22;;;8.19;83.50
70407;BME280;57821;52.202;0.154;2023-03-01T10:06:02;103120.22;;;8.10;83.94
70407;BME280;57821;52.202;0.154;2023-03-01T10:08:54;103120.91;;;8.06;83.91
70407;BME280;57821;52.202;0.154;2023-03-01T10:11:26;103109.69;;;8.06;84.29
70407;BME280;57821;52.202;0.154;2023-03-01T10:17:27;103102.38;;;8.15;87.37
70407;BME280;57821;52.202;0.154;2023-03-01T10:20:13;103102.41;;;8.16;88.92
70407;BME280;57821;52.202;0.154;2023-03-01T10:22:41;103103.28;;;8.17;89.49
70407;BME280;57821;52.202;0.154;2023-03-01T10:25:12;103108.41;;;8.35;91.48
70407;BME280;57821;52.202;0.154;2023-03-01T10:27:53;103106.16;;;8.63;94.25
70407;BME280;57821;52.202;0.154;2023-03-01T10:30:42;103110.00;;;8.93;94.01
70407;BME280;57821;52.202;0.154;2023-03-01T10:35:49;103092.09;;;9.42;91.87
70407;BME280;57821;52.202;0.154;2023-03-01T10:38:18;103093.56;;;9.58;90.47
70407;BME280;57821;52.202;0.154;2023-03-01T10:40:54;103094.81;;;9.69;90.19
70407;BME280;57821;52.202;0.154;2023-03-01T10:43:21;103097.56;;;9.72;88.43
70407;BME280;57821;52.202;0.154;2023-03-01T10:45:48;103100.66;;;9.64;88.64
70407;BME280;57821;52.202;0.154;2023-03-01T10:48:33;103092.50;;;9.53;88.85
70407;BME280;57821;52.202;0.154;2023-03-01T10:56:13;103089.91;;;9.08;88.80
70407;BME280;57821;52.202;0.154;2023-03-01T10:58:56;103073.06;;;8.97;88.71
70407;BME280;57821;52.202;0.154;2023-03-01T11:04:22;103074.16;;;9.02;91.11
70407;BME280;57821;52.202;0.154;2023-03-01T11:06:58;103080.38;;;9.07;90.62
70407;BME280;57821;52.202;0.154;2023-03-01T11:09:25;103068.38;;;9.10;89.06
70407;BME280;57821;52.202;0.154;2023-03-01T11:11:56;103053.06;;;9.16;90.99
70407;BME280;57821;52.202;0.154;2023-03-01T11:14:30;103058.47;;;9.44;91.17
70407;BME280;57821;52.202;0.154;2023-03-01T11:17:01;103058.25;;;9.60;90.58
70407;BME280;57821;52.202;0.154;2023-03-01T11:19:29;103065.50;;;9.70;89.64
70407;BME280;57821;52.202;0.154;2023-03-01T11:24:55;103052.94;;;9.57;89.64
70407;BME280;57821;52.202;0.154;2023-03-01T11:27:40;103043.16;;;9.50;88.50
70407;BME280;57821;52.202;0.154;2023-03-01T11:32:43;103031.19;;;9.30;87.09
70407;BME280;57821;52.202;0.154;2023-03-01T11:35:18;103035.91;;;9.18;88.50
70407;BME280;57821;52.202;0.154;2023-03-01T11:41:08;103021.97;;;8.92;89.39
70407;BME280;57821;52.202;0.154;2023-03-01T11:43:59;103023.91;;;8.97;90.30
70407;BME280;57821;52.202;0.154;2023-03-01T11:54:33;102995.56;;;9.00;88.55
70407;BME280;57821;52.202;0.154;2023-03-01T12:05:20;102989.78;;;9.54;89.96
70407;BME280;57821;52.202;0.154;2023-03-01T12:19:01;102959.19;;;9.93;88.37
70407;BME280;57821;52.202;0.154;2023-03-01T12:29:25;102947.41;;;10.01;85.36
70407;BME280;57821;52.202;0.154;2023-03-01T12:32:08;102948.41;;;10.06;86.12
70407;BME280;57821;52.202;0.154;2023-03-01T12:45:01;102919.06;;;10.60;82.16
70407;BME280;57821;52.202;0.154;2023-03-01T12:48:02;102920.31;;;10.72;85.85
70407;BME280;57821;52.202;0.154;2023-03-01T12:50:42;102915.19;;;10.75;84.16
70407;BME280;57821;52.202;0.154;2023-03-01T12:55:48;102904.19;;;10.53;82.52
70407;BME280;57821;52.202;0.154;2023-03-01T12:58:24;102895.97;;;10.40;83.64
70407;BME280;57821;52.202;0.154;2023-03-01T13:06:37;102889.72;;;9.81;85.29
70407;BME280;57821;52.202;0.154;2023-03-01T13:11:45;102876.75;;;9.81;84.43
70407;BME280;57821;52.202;0.154;2023-03-01T13:16:48;102875.88;;;9.80;83.89
70407;BME280;57821;52.202;0.154;2023-03-01T13:19:18;102878.81;;;9.91;83.40
70407;BME280;57821;52.202;0.154;2023-03-01T13:21:47;102869.31;;;9.92;82.99
70407;BME280;57821;52.202;0.154;2023-03-01T13:24:37;102873.69;;;9.93;84.88
70407;BME280;57821;52.202;0.154;2023-03-01T13:27:10;102867.88;;;10.00;83.78
70407;BME280;57821;52.202;0.154;2023-03-01T13:37:46;102860.16;;;10.28;80.31
70407;BME280;57821;52.202;0.154;2023-03-01T13:42:45;102856.03;;;10.08;80.99
70407;BME280;57821;52.202;0.154;2023-03-01T13:45:40;102845.28;;;9.96;81.81
70407;BME280;57821;52.202;0.154;2023-03-01T13:48:11;102851.31;;;9.95;82.46
70407;BME280;57821;52.202;0.154;2023-03-01T13:50:49;102848.72;;;9.96;83.77
70407;BME280;57821;52.202;0.154;2023-03-01T13:53:19;102839.50;;;10.04;82.96
70407;BME280;57821;52.202;0.154;2023-03-01T13:55:57;102833.81;;;10.16;82.72
70407;BME280;57821;52.202;0.154;2023-03-01T13:58:31;102837.25;;;10.15;82.42
70407;BME280;57821;52.202;0.154;2023-03-01T14:01:04;102834.25;;;10.03;81.05
70407;BME280;57821;52.202;0.154;2023-03-01T14:03:33;102834.94;;;9.96;80.34
70407;BME280;57821;52.202;0.154;2023-03-01T14:06:16;102831.88;;;9.82;82.30
70407;BME280;57821;52.202;0.154;2023-03-01T14:09:08;102835.22;;;9.78;82.45
70407;BME280;57821;52.202;0.154;2023-03-01T14:14:50;102815.81;;;9.67;83.02
70407;BME280;57821;52.202;0.154;2023-03-01T14:19:57;102812.72;;;9.77;82.75
70407;BME280;57821;52.202;0.154;2023-03-01T14:22:32;102805.34;;;9.89;83.95
70407;BME280;57821;52.202;0.154;2023-03-01T14:25:02;102809.88;;;9.96;83.47
70407;BME280;57821;52.202;0.154;2023-03-01T14:27:38;102800.56;;;10.03;82.67
70407;BME280;57821;52.202;0.154;2023-03-01T14:30:27;102816.91;;;10.00;79.54
70407;BME280;57821;52.202;0.154;2023-03-01T14:32:58;102806.94;;;9.85;80.69
70407;BME280;57821;52.202;0.154;2023-03-01T14:35:29;102792.28;;;9.59;81.53
70407;BME280;57821;52.202;0.154;2023-03-01T14:37:56;102796.38;;;9.53;82.83
70407;BME280;57821;52.202;0.154;2023-03-01T14:40:29;102792.72;;;9.46;84.40
70407;BME280;57821;52.202;0.154;2023-03-01T14:42:59;102781.19;;;9.38;84.21
70407;BME280;57821;52.202;0.154;2023-03-01T14:45:27;102789.28;;;9.47;84.01
70407;BME280;57821;52.202;0.154;2023-03-01T14:47:59;102784.25;;;9.52;85.40
70407;BME280;57821;52.202;0.154;2023-03-01T14:50:28;102775.81;;;9.57;85.85
70407;BME280;57821;52.202;0.154;2023-03-01T14:53:02;102774.69;;;9.49;85.62
70407;BME280;57821;52.202;0.154;2023-03-01T14:55:33;102779.75;;;9.46;84.93
70407;BME280;57821;52.202;0.154;2023-03-01T14:58:06;102774.19;;;9.34;85.85
70407;BME280;57821;52.202;0.154;2023-03-01T15:00:33;102781.66;;;9.25;85.44
70407;BME280;57821;52.202;0.154;2023-03-01T15:03:07;102774.44;;;9.16;86.37
70407;BME280;57821;52.202;0.154;2023-03-01T15:05:35;102771.50;;;9.05;86.07